Wetterstation Vordersexau
Wetterdaten: Woche 19.06.17 - 25.06.17 (KW25)
Datum Zeit Temp. A. Feuchte A. Luftdruck Regen Wind Richtung Taupunkt Windchill Windben
19.06.2017 00:00 14,1 C 70 % 1018,1 hPa 0,0 l/m 0,0 km/h O-SO 8,7 C 14,1 C 0,0 km/h
19.06.2017 01:00 13,0 C 75 % 1017,8 hPa 0,0 l/m 0,0 km/h O-NO 8,7 C 13,0 C 0,0 km/h
19.06.2017 02:00 12,8 C 79 % 1017,5 hPa 0,0 l/m 0,0 km/h SO 9,2 C 12,8 C 0,0 km/h
19.06.2017 03:00 11,4 C 80 % 1017,2 hPa 0,0 l/m 0,0 km/h SO 8,1 C 11,4 C 0,0 km/h
19.06.2017 04:00 11,2 C 80 % 1017,4 hPa 0,0 l/m 0,0 km/h NO 7,9 C 11,2 C 0,0 km/h
19.06.2017 05:00 11,1 C 83 % 1017,5 hPa 0,0 l/m 0,0 km/h N-NO 8,3 C 11,1 C 0,0 km/h
19.06.2017 06:00 13,4 C 82 % 1018,1 hPa 0,0 l/m 0,0 km/h N-NO 10,4 C 13,4 C 0,0 km/h
19.06.2017 07:00 18,4 C 75 % 1018,0 hPa 0,0 l/m 0,0 km/h W-NW 13,9 C 18,4 C 0,0 km/h
19.06.2017 08:00 28,3 C 46 % 1018,1 hPa 0,0 l/m 0,0 km/h N 15,6 C 28,3 C 0,0 km/h
19.06.2017 09:00 29,3 C 40 % 1018,2 hPa 0,0 l/m 0,0 km/h W 14,3 C 29,3 C 0,0 km/h
19.06.2017 10:00 29,2 C 43 % 1017,8 hPa 0,0 l/m 0,0 km/h N-NW 15,3 C 29,2 C 0,0 km/h
19.06.2017 11:00 29,8 C 43 % 1017,4 hPa 0,0 l/m 0,0 km/h W-NW 15,8 C 29,8 C 0,0 km/h
19.06.2017 12:00 29,9 C 42 % 1017,0 hPa 0,0 l/m 0,0 km/h W 15,6 C 29,9 C 0,0 km/h
19.06.2017 13:00 32,1 C 42 % 1016,4 hPa 0,0 l/m 0,0 km/h W 17,5 C 32,1 C 0,0 km/h
19.06.2017 14:00 33,8 C 40 % 1015,9 hPa 0,0 l/m 0,0 km/h W-NW 18,3 C 33,8 C 0,0 km/h
19.06.2017 15:00 33,5 C 41 % 1015,4 hPa 0,0 l/m 0,0 km/h N 18,4 C 33,5 C 0,0 km/h
19.06.2017 16:00 37,4 C 33 % 1014,9 hPa 0,0 l/m 0,0 km/h N-NW 18,4 C 37,4 C 0,0 km/h
19.06.2017 17:00 39,4 C 31 % 1014,6 hPa 0,0 l/m 0,0 km/h NO 19,1 C 39,4 C 0,0 km/h
19.06.2017 18:00 39,2 C 32 % 1014,1 hPa 0,0 l/m 0,0 km/h N 19,4 C 39,2 C 0,0 km/h
19.06.2017 19:00 31,2 C 44 % 1014,1 hPa 0,0 l/m 0,0 km/h N-NO 17,5 C 31,2 C 0,0 km/h
19.06.2017 20:00 26,8 C 58 % 1014,1 hPa 0,0 l/m 0,0 km/h N-NO 17,8 C 26,8 C 0,0 km/h
19.06.2017 21:00 22,8 C 67 % 1014,3 hPa 0,0 l/m 0,0 km/h N-NO 16,3 C 22,8 C 0,0 km/h
19.06.2017 22:00 21,6 C 72 % 1014,5 hPa 0,0 l/m 0,0 km/h NO 16,3 C 21,6 C 0,0 km/h
19.06.2017 23:00 20,3 C 76 % 1014,7 hPa 0,0 l/m 0,0 km/h O-SO 15,9 C 20,3 C 0,0 km/h
20.06.2017 00:00 19,3 C 79 % 1014,8 hPa 0,0 l/m 0,0 km/h N-NO 15,6 C 19,3 C 0,0 km/h
20.06.2017 01:00 18,9 C 79 % 1014,6 hPa 0,0 l/m 0,0 km/h O-NO 15,2 C 18,9 C 0,0 km/h
20.06.2017 02:00 18,4 C 81 % 1014,5 hPa 0,0 l/m 0,0 km/h O-NO 15,1 C 18,4 C 0,0 km/h
20.06.2017 03:00 18,1 C 82 % 1014,6 hPa 0,0 l/m 0,0 km/h O-NO 15,0 C 18,1 C 0,0 km/h
20.06.2017 04:00 17,6 C 82 % 1014,7 hPa 0,0 l/m 0,0 km/h O-NO 14,5 C 17,6 C 0,0 km/h
20.06.2017 05:00 17,4 C 83 % 1014,8 hPa 0,0 l/m 0,0 km/h O-NO 14,5 C 17,4 C 0,0 km/h
20.06.2017 06:00 18,6 C 83 % 1014,8 hPa 0,0 l/m 0,0 km/h SO 15,7 C 18,6 C 0,0 km/h
20.06.2017 07:00 22,4 C 79 % 1014,5 hPa 0,0 l/m 0,0 km/h O-SO 18,6 C 22,4 C 0,0 km/h
20.06.2017 08:00 31,8 C 54 % 1014,6 hPa 0,0 l/m 3,2 km/h W-SW 21,3 C 31,8 C 1,8 km/h
20.06.2017 09:00 33,4 C 40 % 1014,5 hPa 0,0 l/m 5,2 km/h W 17,9 C 33,4 C 2,9 km/h
20.06.2017 10:00 32,8 C 40 % 1014,4 hPa 0,0 l/m 19,4 km/h W 17,4 C 32,7 C 10,8 km/h
20.06.2017 11:00 33,1 C 40 % 1014,4 hPa 0,0 l/m 11,7 km/h SW 17,7 C 33,1 C 6,5 km/h
20.06.2017 12:00 33,4 C 40 % 1014,0 hPa 0,0 l/m 22,7 km/h SW 17,9 C 33,4 C 12,6 km/h
20.06.2017 13:00 34,4 C 39 % 1013,6 hPa 0,0 l/m 2,6 km/h W 18,4 C 34,4 C 1,4 km/h
20.06.2017 14:00 35,6 C 38 % 1013,2 hPa 0,0 l/m 16,8 km/h W-SW 19,0 C 35,6 C 9,4 km/h
20.06.2017 15:00 35,4 C 38 % 1012,8 hPa 0,0 l/m 5,2 km/h W 18,9 C 35,4 C 2,9 km/h
20.06.2017 16:00 36,9 C 36 % 1012,4 hPa 0,0 l/m 1,9 km/h N-NW 19,3 C 36,9 C 1,1 km/h
20.06.2017 17:00 34,4 C 41 % 1012,2 hPa 0,0 l/m 0,0 km/h N 19,2 C 34,4 C 0,0 km/h
20.06.2017 18:00 32,1 C 44 % 1012,0 hPa 0,0 l/m 0,0 km/h O-SO 18,3 C 32,1 C 0,0 km/h
20.06.2017 19:00 31,6 C 47 % 1012,3 hPa 0,0 l/m 0,0 km/h O-SO 18,9 C 31,6 C 0,0 km/h
20.06.2017 20:00 26,3 C 64 % 1012,4 hPa 0,0 l/m 7,8 km/h O-SO 18,9 C 26,0 C 4,3 km/h
20.06.2017 21:00 21,9 C 72 % 1012,8 hPa 0,0 l/m 0,0 km/h O-SO 16,6 C 21,9 C 0,0 km/h
20.06.2017 22:00 20,1 C 77 % 1013,3 hPa 0,0 l/m 0,0 km/h O-SO 15,9 C 20,1 C 0,0 km/h
20.06.2017 23:00 20,2 C 77 % 1013,4 hPa 0,0 l/m 0,0 km/h O-SO 16,0 C 20,2 C 0,0 km/h
21.06.2017 00:00 19,3 C 80 % 1013,5 hPa 0,0 l/m 0,0 km/h O-SO 15,8 C 19,3 C 0,0 km/h
21.06.2017 01:00 18,9 C 80 % 1013,3 hPa 0,0 l/m 0,0 km/h O-SO 15,4 C 18,9 C 0,0 km/h
21.06.2017 02:00 18,2 C 81 % 1013,0 hPa 0,0 l/m 0,0 km/h O-SO 14,9 C 18,2 C 0,0 km/h
21.06.2017 03:00 18,0 C 82 % 1012,5 hPa 0,0 l/m 0,0 km/h O 14,9 C 18,0 C 0,0 km/h
21.06.2017 04:00 18,1 C 82 % 1012,4 hPa 0,0 l/m 0,0 km/h O 15,0 C 18,1 C 0,0 km/h
21.06.2017 05:00 17,7 C 82 % 1013,0 hPa 0,0 l/m 0,0 km/h O-NO 14,6 C 17,7 C 0,0 km/h
21.06.2017 06:00 18,9 C 82 % 1013,1 hPa 0,0 l/m 0,0 km/h SO 15,8 C 18,9 C 0,0 km/h
21.06.2017 07:00 21,8 C 78 % 1013,2 hPa 0,0 l/m 0,0 km/h O-SO 17,8 C 21,8 C 0,0 km/h
21.06.2017 08:00 26,2 C 63 % 1013,4 hPa 0,0 l/m 0,0 km/h W 18,6 C 26,2 C 0,0 km/h
21.06.2017 09:00 28,6 C 58 % 1013,5 hPa 0,0 l/m 0,0 km/h N-NO 19,5 C 28,6 C 0,0 km/h
21.06.2017 10:00 31,1 C 51 % 1013,5 hPa 0,0 l/m 0,0 km/h N 19,7 C 31,1 C 0,0 km/h
21.06.2017 11:00 31,8 C 49 % 1013,4 hPa 0,0 l/m 0,0 km/h N-NO 19,7 C 31,8 C 0,0 km/h
21.06.2017 12:00 33,1 C 48 % 1013,4 hPa 0,0 l/m 0,0 km/h N 20,6 C 33,1 C 0,0 km/h
21.06.2017 13:00 35,2 C 43 % 1013,0 hPa 0,0 l/m 0,0 km/h SW 20,7 C 35,2 C 0,0 km/h
21.06.2017 14:00 36,1 C 37 % 1012,5 hPa 0,0 l/m 0,0 km/h N-NO 19,1 C 36,1 C 0,0 km/h
21.06.2017 15:00 35,9 C 39 % 1011,9 hPa 0,0 l/m 18,8 km/h N-NO 19,7 C 35,9 C 10,4 km/h
21.06.2017 16:00 37,8 C 33 % 1011,9 hPa 0,0 l/m 0,0 km/h N 18,7 C 37,8 C 0,0 km/h
21.06.2017 17:00 39,4 C 29 % 1011,6 hPa 0,0 l/m 23,3 km/h N-NO 18,0 C 39,4 C 13,0 km/h
21.06.2017 18:00 37,8 C 31 % 1011,4 hPa 0,0 l/m 7,1 km/h N-NO 17,7 C 37,8 C 4,0 km/h
21.06.2017 19:00 31,3 C 45 % 1011,9 hPa 0,0 l/m 0,0 km/h N-NO 17,9 C 31,3 C 0,0 km/h
21.06.2017 20:00 27,6 C 55 % 1012,3 hPa 0,0 l/m 0,0 km/h NO 17,7 C 27,6 C 0,0 km/h
21.06.2017 21:00 23,4 C 67 % 1012,8 hPa 0,0 l/m 0,0 km/h NO 16,9 C 23,4 C 0,0 km/h
21.06.2017 22:00 22,2 C 70 % 1013,6 hPa 0,0 l/m 0,0 km/h O-NO 16,5 C 22,2 C 0,0 km/h
21.06.2017 23:00 20,6 C 75 % 1013,7 hPa 0,0 l/m 0,0 km/h NO 16,0 C 20,6 C 0,0 km/h
22.06.2017 00:00 19,4 C 77 % 1013,4 hPa 0,0 l/m 0,0 km/h NO 15,3 C 19,4 C 0,0 km/h
22.06.2017 01:00 18,9 C 77 % 1013,5 hPa 0,0 l/m 0,0 km/h O-NO 14,8 C 18,9 C 0,0 km/h
22.06.2017 02:00 18,3 C 78 % 1013,2 hPa 0,0 l/m 0,0 km/h N-NO 14,4 C 18,3 C 0,0 km/h
22.06.2017 03:00 18,2 C 79 % 1013,3 hPa 0,0 l/m 0,0 km/h O-SO 14,5 C 18,2 C 0,0 km/h
22.06.2017 04:00 17,2 C 80 % 1013,3 hPa 0,0 l/m 0,0 km/h O-SO 13,7 C 17,2 C 0,0 km/h
22.06.2017 05:00 16,9 C 81 % 1013,4 hPa 0,0 l/m 0,0 km/h O-SO 13,6 C 16,9 C 0,0 km/h
22.06.2017 06:00 18,3 C 80 % 1013,3 hPa 0,0 l/m 0,0 km/h SO 14,8 C 18,3 C 0,0 km/h
22.06.2017 07:00 22,2 C 74 % 1013,5 hPa 0,0 l/m 0,0 km/h O-SO 17,3 C 22,2 C 0,0 km/h
22.06.2017 08:00 30,3 C 56 % 1013,4 hPa 0,0 l/m 0,0 km/h SO 20,5 C 30,3 C 0,0 km/h
22.06.2017 09:00 34,3 C 46 % 1013,4 hPa 0,0 l/m 0,0 km/h W-SW 21,0 C 34,3 C 0,0 km/h
22.06.2017 10:00 35,3 C 40 % 1013,2 hPa 0,0 l/m 4,5 km/h W-SW 19,6 C 35,3 C 2,5 km/h
22.06.2017 11:00 35,1 C 40 % 1013,2 hPa 0,0 l/m 0,0 km/h SW 19,4 C 35,1 C 0,0 km/h
22.06.2017 12:00 35,9 C 37 % 1012,7 hPa 0,0 l/m 16,8 km/h SW 18,9 C 35,9 C 9,4 km/h
22.06.2017 13:00 37,1 C 33 % 1012,4 hPa 0,0 l/m 7,8 km/h W-SW 18,1 C 37,1 C 4,3 km/h
22.06.2017 14:00 38,1 C 32 % 1011,4 hPa 0,0 l/m 6,5 km/h W-SW 18,5 C 38,1 C 3,6 km/h
22.06.2017 15:00 37,6 C 31 % 1011,3 hPa 0,0 l/m 11,7 km/h W-SW 17,5 C 37,6 C 6,5 km/h
22.06.2017 16:00 36,3 C 37 % 1011,2 hPa 0,0 l/m 22,7 km/h SW 19,2 C 36,3 C 12,6 km/h
22.06.2017 17:00 38,7 C 30 % 1010,4 hPa 0,0 l/m 11,0 km/h W 18,0 C 38,7 C 6,1 km/h
22.06.2017 18:00 36,9 C 30 % 1010,3 hPa 0,0 l/m 22,0 km/h S-SW 16,4 C 36,9 C 12,2 km/h
22.06.2017 19:00 32,2 C 41 % 1010,6 hPa 0,0 l/m 0,0 km/h W 17,2 C 32,2 C 0,0 km/h
22.06.2017 20:00 30,5 C 47 % 1010,2 hPa 0,0 l/m 0,0 km/h S-SW 17,9 C 30,5 C 0,0 km/h
22.06.2017 21:00 27,8 C 52 % 1011,1 hPa 0,0 l/m 0,0 km/h W-SW 17,0 C 27,8 C 0,0 km/h
22.06.2017 22:00 28,5 C 53 % 1011,2 hPa 0,0 l/m 0,0 km/h W 18,0 C 28,5 C 0,0 km/h
22.06.2017 23:00 26,4 C 58 % 1011,4 hPa 0,0 l/m 0,0 km/h NW 17,5 C 26,4 C 0,0 km/h
23.06.2017 00:00 24,4 C 67 % 1011,9 hPa 0,0 l/m 0,0 km/h N-NO 17,9 C 24,4 C 0,0 km/h
23.06.2017 01:00 22,8 C 74 % 1012,3 hPa 0,0 l/m 0,0 km/h N-NO 17,9 C 22,8 C 0,0 km/h
23.06.2017 02:00 22,4 C 76 % 1012,0 hPa 0,0 l/m 0,0 km/h N-NO 18,0 C 22,4 C 0,0 km/h
23.06.2017 03:00 21,2 C 77 % 1012,3 hPa 0,0 l/m 0,0 km/h N-NO 17,0 C 21,2 C 0,0 km/h
23.06.2017 04:00 20,6 C 79 % 1012,4 hPa 0,0 l/m 0,0 km/h O-NO 16,8 C 20,6 C 0,0 km/h
23.06.2017 05:00 20,1 C 80 % 1012,6 hPa 0,0 l/m 0,0 km/h N-NO 16,5 C 20,1 C 0,0 km/h
23.06.2017 06:00 20,9 C 79 % 1013,0 hPa 0,0 l/m 0,0 km/h N-NO 17,1 C 20,9 C 0,0 km/h
23.06.2017 07:00 24,3 C 73 % 1013,5 hPa 0,0 l/m 0,0 km/h NO 19,1 C 24,3 C 0,0 km/h
23.06.2017 08:00 30,4 C 54 % 1013,9 hPa 0,0 l/m 0,0 km/h SW 20,0 C 30,4 C 0,0 km/h
23.06.2017 09:00 31,3 C 51 % 1014,7 hPa 0,0 l/m 5,8 km/h W-NW 19,9 C 31,3 C 3,2 km/h
23.06.2017 10:00 31,4 C 47 % 1015,2 hPa 0,0 l/m 0,0 km/h N-NW 18,7 C 31,4 C 0,0 km/h
23.06.2017 11:00 32,0 C 44 % 1015,0 hPa 0,0 l/m 0,0 km/h N 18,2 C 32,0 C 0,0 km/h
23.06.2017 12:00 32,3 C 44 % 1014,8 hPa 0,0 l/m 25,3 km/h N-NW 18,5 C 32,0 C 14,0 km/h
23.06.2017 13:00 32,1 C 44 % 1014,9 hPa 0,0 l/m 3,2 km/h N-NO 18,3 C 32,1 C 1,8 km/h
23.06.2017 14:00 32,9 C 44 % 1014,8 hPa 0,0 l/m 33,7 km/h N-NO 19,0 C 32,9 C 18,7 km/h
23.06.2017 15:00 32,9 C 44 % 1014,7 hPa 0,0 l/m 16,2 km/h NW 19,0 C 32,9 C 9,0 km/h
23.06.2017 16:00 33,9 C 38 % 1014,5 hPa 0,0 l/m 8,4 km/h NW 17,5 C 33,9 C 4,7 km/h
23.06.2017 17:00 35,2 C 34 % 1014,6 hPa 0,0 l/m 0,0 km/h NW 16,9 C 35,2 C 0,0 km/h
23.06.2017 18:00 33,6 C 35 % 1014,4 hPa 0,0 l/m 4,5 km/h N 16,0 C 33,6 C 2,5 km/h
23.06.2017 19:00 29,1 C 44 % 1014,6 hPa 0,0 l/m 0,0 km/h N-NO 15,6 C 29,1 C 0,0 km/h
23.06.2017 20:00 27,3 C 49 % 1014,8 hPa 0,0 l/m 0,0 km/h N 15,6 C 27,3 C 0,0 km/h
23.06.2017 21:00 23,5 C 58 % 1015,8 hPa 0,0 l/m 0,0 km/h N 14,7 C 23,5 C 0,0 km/h
23.06.2017 22:00 20,8 C 69 % 1016,3 hPa 0,0 l/m 0,0 km/h N 14,9 C 20,8 C 0,0 km/h
23.06.2017 23:00 20,8 C 71 % 1016,5 hPa 0,0 l/m 0,0 km/h N 15,3 C 20,8 C 0,0 km/h
24.06.2017 00:00 19,9 C 75 % 1016,3 hPa 0,0 l/m 0,0 km/h N 15,3 C 19,9 C 0,0 km/h
24.06.2017 01:00 19,9 C 75 % 1016,6 hPa 0,0 l/m 0,0 km/h N-NO 15,3 C 19,9 C 0,0 km/h
24.06.2017 02:00 19,8 C 77 % 1016,5 hPa 0,0 l/m 0,0 km/h N-NO 15,6 C 19,8 C 0,0 km/h
24.06.2017 03:00 19,5 C 78 % 1016,5 hPa 0,0 l/m 0,0 km/h N-NO 15,6 C 19,5 C 0,0 km/h
24.06.2017 04:00 19,4 C 78 % 1016,3 hPa 0,0 l/m 0,0 km/h N-NO 15,5 C 19,4 C 0,0 km/h
24.06.2017 05:00 19,3 C 78 % 1016,3 hPa 0,0 l/m 0,0 km/h N-NO 15,4 C 19,3 C 0,0 km/h
24.06.2017 06:00 19,7 C 78 % 1016,6 hPa 0,0 l/m 0,0 km/h N-NO 15,8 C 19,7 C 0,0 km/h
24.06.2017 07:00 21,6 C 75 % 1016,7 hPa 0,0 l/m 0,0 km/h N 17,0 C 21,6 C 0,0 km/h
24.06.2017 08:00 23,5 C 64 % 1016,8 hPa 0,0 l/m 0,0 km/h W 16,3 C 23,5 C 0,0 km/h
24.06.2017 09:00 24,5 C 59 % 1016,7 hPa 0,0 l/m 0,0 km/h N 15,9 C 24,5 C 0,0 km/h
24.06.2017 10:00 24,6 C 58 % 1016,6 hPa 0,0 l/m 0,0 km/h N-NO 15,8 C 24,6 C 0,0 km/h
24.06.2017 11:00 23,4 C 61 % 1016,4 hPa 0,0 l/m 0,0 km/h SO 15,4 C 23,4 C 0,0 km/h
24.06.2017 12:00 26,6 C 53 % 1016,0 hPa 0,0 l/m 0,0 km/h W-NW 16,2 C 26,6 C 0,0 km/h
24.06.2017 13:00 30,0 C 46 % 1015,5 hPa 0,0 l/m 0,0 km/h W-NW 17,1 C 30,0 C 0,0 km/h
24.06.2017 14:00 28,9 C 48 % 1014,9 hPa 0,0 l/m 18,1 km/h S-SW 16,8 C 27,8 C 10,1 km/h
24.06.2017 15:00 30,2 C 45 % 1014,2 hPa 0,0 l/m 7,8 km/h W-SW 16,9 C 30,1 C 4,3 km/h
24.06.2017 16:00 31,3 C 41 % 1013,7 hPa 0,0 l/m 24,0 km/h SW 16,4 C 30,7 C 13,3 km/h
24.06.2017 17:00 32,9 C 39 % 1013,2 hPa 0,0 l/m 12,3 km/h S-SW 17,1 C 32,9 C 6,8 km/h
24.06.2017 18:00 31,8 C 37 % 1013,2 hPa 0,0 l/m 7,8 km/h W-SW 15,3 C 31,7 C 4,3 km/h
24.06.2017 19:00 26,6 C 47 % 1013,1 hPa 0,0 l/m 7,8 km/h W 14,3 C 26,3 C 4,3 km/h
24.06.2017 20:00 24,7 C 54 % 1012,5 hPa 0,0 l/m 0,0 km/h SW 14,8 C 24,7 C 0,0 km/h
24.06.2017 21:00 20,5 C 65 % 1013,1 hPa 0,0 l/m 0,0 km/h NW 13,7 C 20,5 C 0,0 km/h
24.06.2017 22:00 18,7 C 72 % 1013,2 hPa 0,0 l/m 0,0 km/h NW 13,5 C 18,7 C 0,0 km/h
24.06.2017 23:00 18,2 C 73 % 1013,3 hPa 0,0 l/m 0,0 km/h N 13,3 C 18,2 C 0,0 km/h
25.06.2017 00:00 17,7 C 77 % 1013,1 hPa 0,0 l/m 0,0 km/h SO 13,6 C 17,7 C 0,0 km/h
25.06.2017 01:00 16,9 C 79 % 1013,6 hPa 0,0 l/m 0,0 km/h O-SO 13,2 C 16,9 C 0,0 km/h
25.06.2017 02:00 16,8 C 80 % 1014,0 hPa 0,0 l/m 0,0 km/h O-SO 13,3 C 16,8 C 0,0 km/h
25.06.2017 03:00 16,7 C 81 % 1013,7 hPa 0,0 l/m 0,0 km/h O-SO 13,4 C 16,7 C 0,0 km/h
25.06.2017 04:00 16,6 C 81 % 1013,8 hPa 0,0 l/m 0,0 km/h O-SO 13,3 C 16,6 C 0,0 km/h
25.06.2017 05:00 17,0 C 81 % 1013,3 hPa 0,0 l/m 0,0 km/h O-SO 13,7 C 17,0 C 0,0 km/h
25.06.2017 06:00 17,6 C 80 % 1013,2 hPa 0,0 l/m 0,0 km/h SO 14,1 C 17,6 C 0,0 km/h
25.06.2017 07:00 18,3 C 79 % 1013,9 hPa 0,0 l/m 0,0 km/h SO 14,6 C 18,3 C 0,0 km/h
25.06.2017 08:00 20,4 C 75 % 1013,7 hPa 0,0 l/m 0,0 km/h W-SW 15,8 C 20,4 C 0,0 km/h
25.06.2017 09:00 24,9 C 63 % 1014,1 hPa 0,0 l/m 17,5 km/h SW 17,4 C 22,8 C 9,7 km/h
25.06.2017 10:00 27,4 C 47 % 1013,7 hPa 0,0 l/m 22,0 km/h SW 15,1 C 25,6 C 12,2 km/h
25.06.2017 11:00 26,8 C 46 % 1013,5 hPa 0,0 l/m 13,0 km/h W-SW 14,2 C 25,7 C 7,2 km/h
25.06.2017 12:00 28,9 C 42 % 1013,4 hPa 0,0 l/m 18,1 km/h W 14,7 C 27,8 C 10,1 km/h
25.06.2017 13:00 25,2 C 43 % 1013,6 hPa 0,0 l/m 21,4 km/h W 11,7 C 22,8 C 11,9 km/h
25.06.2017 14:00 26,4 C 43 % 1013,7 hPa 0,0 l/m 18,1 km/h W 12,8 C 24,7 C 10,1 km/h
25.06.2017 15:00 27,6 C 42 % 1013,6 hPa 0,0 l/m 16,2 km/h W 13,5 C 26,3 C 9,0 km/h
25.06.2017 16:00 28,1 C 40 % 1013,0 hPa 0,0 l/m 21,4 km/h SW 13,2 C 26,6 C 11,9 km/h
25.06.2017 17:00 27,4 C 42 % 1012,9 hPa 0,0 l/m 20,7 km/h W-NW 13,3 C 25,7 C 11,5 km/h
25.06.2017 18:00 26,2 C 44 % 1012,6 hPa 0,0 l/m 22,0 km/h W 13,0 C 24,0 C 12,2 km/h
25.06.2017 19:00 24,5 C 48 % 1012,5 hPa 0,0 l/m 0,0 km/h W 12,8 C 24,5 C 0,0 km/h
25.06.2017 20:00 23,1 C 53 % 1012,4 hPa 0,0 l/m 0,0 km/h N 13,0 C 23,1 C 0,0 km/h
25.06.2017 21:00 21,5 C 60 % 1012,8 hPa 0,0 l/m 0,0 km/h N 13,4 C 21,5 C 0,0 km/h
25.06.2017 22:00 18,9 C 67 % 1013,3 hPa 0,0 l/m 0,0 km/h N 12,6 C 18,9 C 0,0 km/h
25.06.2017 23:00 18,1 C 70 % 1013,4 hPa 0,0 l/m 0,0 km/h N 12,5 C 18,1 C 0,0 km/h
Min-Datum _ 19.06.17 21.06.17 22.06.17 - 19.06.17 - 19.06.17 19.06.17 19.06.17
_ Min-Zeit 05:55 17:55 20:55 - 00:55 - 04:55 05:55 00:55
Minimum _ 11,1 C 29 % 1010,2 hPa - 0,0 km/h - 7,9 C 11,1 C 0,0 km/h
Max-Datum _ 19.06.17 19.06.17 19.06.17 19.06.17 23.06.17 - 20.06.17 19.06.17 23.06.17
_ Max-Zeit 17:55 05:55 09:55 00:55 14:55 - 08:55 17:55 14:55
Maximum _ 39,4 C 83 % 1018,2 hPa 0,0 l/m 33,7 km/h
N-NO
- 21,3 C 39,4 C 18,7 km/h
N-NO
Durchschnitt _ 25,8 C 59 % 1014,0 hPa #0,0 l/m 3,7 km/h N-NO 16,2 C 25,7 C 2,0 km/h
www.sexauwetter.de